アピア の空港の天気 - METARとTAF

ファレオロ国際空港(サモア) ( NSFA / APW ) - サモア アピア
飛行場実況気象(Metar)
観測時間08/04 09:00 WSST (08/03 20:00 UTC)
風向・風速東北東 2m/s
視程10km以上
天気現象
少しの雲 雲底高度 980m
気温29℃
湿度84%
気圧1011hPa
METARNSFA 032000Z 07004KT 9999 FEW032 29/26 Q1011 RMK NIL
過去の天気等 Google飛行場航空写真 Wunderground天気予報

過去48時間のMETAR

飛行場予報(TAF)
発表時間: 8/04 06:07 WSST (8/03 17:07 UTC)
予報対象時間: 4日7時 WSST ~ 5日7時 WSST
風向・風速東南東 3m/s
視程10km以上
少しの雲 雲底高度 910m
4日7時 WSST ~ 4日13時 WSST に 確率 30% で一時的に
視程5000m
天気現象しゅう雨
全天の8割程度の雲 雲底高度 460m
TAF NSFA 031707Z 0318/0418 11006KT 9999 FEW030
PROB30 TEMPO 0318/0324 5000 SHRA BKN015